Loysville, Pennsylvania
Current Conditions -  °F | °C
As of 9:56 PM on Friday 21 Nov 2014 (Local Time) from KCXY Reporting Station
Clear Clear  
Wind Chill: 17°   Ceiling: Unl
Heat Index: 23°   Visibility: 10mi
Dew Point: 11°   Wind: 5mph
Humidity: 60%   Direction: 230°SW
Pressure: 30.52"   Gusts: NA
Location:  40.37°N, 77.34°W
Report Text: KCXY 220256Z AUTO 23004KT 10SM CLR M05/M12 A3052 RMK AO2 SLP342 T10501117 50004
Loading
Personal Weather Stations






























Interactive Weather Map New forecast layout! Learn more

10-Day Weather Forecast

Advertisements
Track Severe Weather on mobile